Terminal Aerodrome Forecast
Issued by NWS Newport/Morehead City, NC

Home | Current Version | Previous Version | Graphics & Text | Print | Product List | Glossary On
Versions: 1 2 3 4 5 6 7 8 9 10 11 12 13 14 15 16 17 18 19 20
000
FTUS42 KMHX 160100 AAA
TAFEWN
TAF AMD
KEWN 160133Z 1602/1624 22015G25KT 2SM -RA SCT008 OVC015
     FM160230 33015G25KT P6SM VCSH BKN020
     FM160700 36015G25KT P6SM SKC
     FM161800 02015G20KT P6SM SKC=

USA.gov is the U.S. government's official web portal to all federal, state and local government web resources and services.